createdAt,value
2022-08-05T00:02:11.608Z,38.57
2022-08-05T00:05:05.872Z,38.54
2022-08-05T00:08:01.071Z,38.54
2022-08-05T00:10:51.806Z,38.58
2022-08-05T00:13:43.431Z,38.74
2022-08-05T00:16:52.595Z,38.76
2022-08-05T00:19:57.435Z,38.93
2022-08-05T00:22:57.402Z,39.01
2022-08-05T00:25:51.752Z,39.15
2022-08-05T00:28:45.737Z,39.16
2022-08-05T00:31:53.300Z,39.17
2022-08-05T00:35:04.415Z,39.10
2022-08-05T00:37:57.797Z,38.96
2022-08-05T00:40:53.408Z,38.72
2022-08-05T00:43:49.965Z,38.73
2022-08-05T00:46:42.594Z,38.66
2022-08-05T00:49:44.603Z,38.63
2022-08-05T00:52:42.380Z,38.88
2022-08-05T00:55:43.547Z,38.92
2022-08-05T00:58:33.976Z,39.18
2022-08-05T01:01:42.138Z,39.19
2022-08-05T01:04:34.154Z,39.33
2022-08-05T01:07:31.755Z,39.49
2022-08-05T01:10:28.774Z,39.41
2022-08-05T01:13:57.906Z,39.31
2022-08-05T01:16:45.077Z,39.40
2022-08-05T01:20:01.915Z,39.18
2022-08-05T01:23:14.964Z,39.44
2022-08-05T01:26:26.397Z,39.37
2022-08-05T01:29:23.021Z,39.56
2022-08-05T01:32:18.847Z,39.47
2022-08-05T01:35:51.176Z,39.70
2022-08-05T01:38:30.072Z,39.74
2022-08-05T01:41:25.794Z,39.76
2022-08-05T01:44:18.297Z,39.81
2022-08-05T01:47:12.128Z,39.81
2022-08-05T01:50:05.138Z,39.83
2022-08-05T01:53:00.610Z,39.81
2022-08-05T01:55:54.214Z,39.78
2022-08-05T01:58:46.524Z,39.85
2022-08-05T02:01:41.799Z,39.76
2022-08-05T02:04:36.428Z,39.95
2022-08-05T02:07:30.491Z,39.97
2022-08-05T02:10:23.678Z,39.78
2022-08-05T02:13:22.954Z,39.70
2022-08-05T02:16:23.834Z,39.83
2022-08-05T02:19:25.928Z,39.89
2022-08-05T02:22:26.767Z,39.90
2022-08-05T02:25:23.656Z,39.89
2022-08-05T02:28:29.379Z,40.15
2022-08-05T02:31:28.497Z,40.00
2022-08-05T02:34:30.515Z,40.13
2022-08-05T02:37:22.838Z,40.25
2022-08-05T02:40:14.875Z,40.26
2022-08-05T02:43:08.022Z,40.40
2022-08-05T02:46:02.114Z,40.31
2022-08-05T02:48:54.087Z,40.32
2022-08-05T02:52:03.749Z,40.42
2022-08-05T02:54:57.257Z,40.34
2022-08-05T02:58:10.177Z,40.20
2022-08-05T03:01:02.164Z,39.88
2022-08-05T03:04:03.113Z,39.80
2022-08-05T03:07:01.048Z,39.99
2022-08-05T03:09:52.048Z,40.07
2022-08-05T03:12:43.283Z,40.04
2022-08-05T03:15:33.865Z,39.98
2022-08-05T03:18:29.766Z,39.98
2022-08-05T03:21:23.699Z,39.96
2022-08-05T03:24:30.187Z,39.90
2022-08-05T03:27:22.129Z,39.80
2022-08-05T03:30:20.784Z,39.88
2022-08-05T03:33:20.022Z,39.85
2022-08-05T03:36:12.686Z,39.57
2022-08-05T03:39:19.837Z,39.65
2022-08-05T03:42:16.071Z,39.55
2022-08-05T03:45:21.544Z,39.48
2022-08-05T03:48:15.386Z,39.47
2022-08-05T03:52:37.213Z,39.49
2022-08-05T03:55:49.723Z,39.70
2022-08-05T03:57:53.533Z,39.67
2022-08-05T04:00:51.401Z,39.59
2022-08-05T04:04:09.524Z,39.65
2022-08-05T04:07:01.682Z,39.76
2022-08-05T04:09:55.091Z,39.64
2022-08-05T04:12:46.008Z,39.50
2022-08-05T04:15:37.281Z,39.37
2022-08-05T04:18:29.196Z,39.39
2022-08-05T04:22:09.301Z,39.34
2022-08-05T04:24:31.352Z,39.42
2022-08-05T04:27:41.779Z,39.36
2022-08-05T04:30:33.233Z,39.22
2022-08-05T04:34:17.214Z,39.34
2022-08-05T04:36:45.648Z,39.37
2022-08-05T04:39:41.218Z,39.47
2022-08-05T04:42:32.070Z,39.27
2022-08-05T04:45:48.626Z,39.33
2022-08-05T04:48:36.886Z,39.31
2022-08-05T04:51:30.364Z,39.28
2022-08-05T04:54:21.904Z,39.23
2022-08-05T04:57:12.467Z,39.20
2022-08-05T05:00:02.491Z,39.22
2022-08-05T05:02:53.216Z,39.40
2022-08-05T05:06:35.868Z,39.55
2022-08-05T05:08:53.366Z,39.40
2022-08-05T05:11:54.331Z,39.75
2022-08-05T05:14:50.838Z,39.52
2022-08-05T05:17:56.911Z,39.57
2022-08-05T05:20:50.435Z,39.76
2022-08-05T05:24:03.975Z,39.52
2022-08-05T05:26:51.965Z,39.62
2022-08-05T05:30:04.261Z,39.74
2022-08-05T05:32:52.823Z,39.71
2022-08-05T05:35:43.563Z,39.80
2022-08-05T05:38:33.724Z,39.71
2022-08-05T05:41:23.325Z,39.71
2022-08-05T05:44:35.794Z,39.83
2022-08-05T05:47:30.224Z,39.93
2022-08-05T05:50:44.015Z,39.88
2022-08-05T05:53:54.150Z,39.83
2022-08-05T05:56:43.729Z,39.73
2022-08-05T05:59:40.250Z,39.63
2022-08-05T06:02:37.370Z,39.79
2022-08-05T06:05:27.323Z,39.99
2022-08-05T06:08:32.275Z,40.18
2022-08-05T06:11:28.838Z,40.26
2022-08-05T06:14:18.978Z,40.53
2022-08-05T06:17:21.917Z,40.49
2022-08-05T06:20:18.914Z,40.51
2022-08-05T06:23:11.741Z,40.51
2022-08-05T06:26:13.928Z,40.51
2022-08-05T06:29:43.283Z,40.65
2022-08-05T06:32:25.768Z,40.90
2022-08-05T06:36:04.036Z,41.03
2022-08-05T06:38:36.182Z,41.03
2022-08-05T06:41:27.591Z,41.23
2022-08-05T06:44:19.368Z,41.31
2022-08-05T06:47:30.037Z,41.45
2022-08-05T06:50:22.606Z,41.43
2022-08-05T06:53:22.343Z,41.52
2022-08-05T06:56:26.250Z,41.97
2022-08-05T06:59:16.585Z,42.32
2022-08-05T07:02:08.032Z,42.58
2022-08-05T07:04:59.499Z,43.03
2022-08-05T07:07:50.606Z,42.99
2022-08-05T07:10:53.177Z,43.11
2022-08-05T07:14:02.346Z,43.21
2022-08-05T07:17:59.395Z,43.17
2022-08-05T07:20:32.234Z,43.43
2022-08-05T07:23:26.545Z,43.51
2022-08-05T07:26:22.770Z,43.46
2022-08-05T07:29:16.566Z,43.64
2022-08-05T07:32:07.844Z,43.44
2022-08-05T07:34:58.719Z,43.40
2022-08-05T07:37:48.416Z,43.60
2022-08-05T07:40:44.596Z,43.62
2022-08-05T07:43:34.998Z,43.60
2022-08-05T07:46:26.016Z,43.85
2022-08-05T07:49:16.185Z,44.04
2022-08-05T07:52:08.815Z,44.27
2022-08-05T07:54:59.522Z,44.35
2022-08-05T07:58:02.107Z,44.30
2022-08-05T08:00:53.054Z,44.34
2022-08-05T08:03:44.523Z,44.35
2022-08-05T08:06:35.359Z,44.61
2022-08-05T08:09:25.239Z,44.73
2022-08-05T08:12:35.584Z,44.85
2022-08-05T08:15:37.431Z,44.66
2022-08-05T08:18:39.609Z,44.77
2022-08-05T08:21:29.590Z,44.88
2022-08-05T08:24:20.377Z,44.94
2022-08-05T08:27:40.474Z,45.08
2022-08-05T08:30:40.762Z,45.11
2022-08-05T08:33:38.750Z,44.97
2022-08-05T08:36:38.691Z,44.95
2022-08-05T08:39:32.526Z,45.07
2022-08-05T08:42:33.892Z,44.97
2022-08-05T08:45:30.418Z,44.86
2022-08-05T08:48:59.310Z,45.02
2022-08-05T08:52:04.012Z,45.08
2022-08-05T08:54:47.692Z,45.11
2022-08-05T08:57:42.362Z,45.19
2022-08-05T09:00:48.943Z,45.34
2022-08-05T09:03:45.545Z,45.42
2022-08-05T09:06:36.229Z,45.41
2022-08-05T09:09:34.629Z,45.47
2022-08-05T09:12:27.904Z,45.55
2022-08-05T09:15:18.038Z,45.56
2022-08-05T09:18:13.464Z,45.82
2022-08-05T09:21:03.127Z,45.84
2022-08-05T09:24:10.217Z,46.02
2022-08-05T09:27:01.402Z,45.92
2022-08-05T09:29:54.597Z,46.16
2022-08-05T09:32:46.855Z,46.24
2022-08-05T09:35:36.951Z,46.17
2022-08-05T09:38:29.483Z,46.37
2022-08-05T09:41:19.622Z,46.44
2022-08-05T09:44:11.212Z,46.38
2022-08-05T09:47:12.747Z,46.38
2022-08-05T09:50:04.595Z,46.58
2022-08-05T09:53:04.030Z,46.54
2022-08-05T09:56:04.494Z,46.58
2022-08-05T09:59:05.038Z,46.49
2022-08-05T10:01:58.211Z,46.50
2022-08-05T10:04:48.497Z,46.56
2022-08-05T10:08:36.660Z,46.53
2022-08-05T10:11:15.073Z,46.63
2022-08-05T10:14:24.614Z,46.48
2022-08-05T10:17:37.444Z,46.60
2022-08-05T10:20:29.165Z,46.54
2022-08-05T10:23:55.900Z,46.53
2022-08-05T10:26:33.807Z,46.75
2022-08-05T10:30:06.951Z,46.73
2022-08-05T10:32:55.161Z,46.86
2022-08-05T10:35:58.931Z,46.75
2022-08-05T10:38:53.335Z,46.67
2022-08-05T10:41:59.090Z,46.75
2022-08-05T10:44:52.933Z,46.91
2022-08-05T10:47:47.105Z,47.00
2022-08-05T10:51:03.488Z,47.13
2022-08-05T10:54:00.900Z,47.11
2022-08-05T10:56:56.040Z,47.06
2022-08-05T11:00:02.042Z,47.05
2022-08-05T11:03:25.950Z,47.10
2022-08-05T11:06:17.886Z,47.14
2022-08-05T11:09:39.193Z,47.22
2022-08-05T11:12:50.296Z,47.40
2022-08-05T11:16:00.210Z,47.49
2022-08-05T11:20:11.151Z,47.52
2022-08-05T11:22:49.716Z,47.96
2022-08-05T11:26:05.213Z,48.14
2022-08-05T11:28:56.538Z,48.56
2022-08-05T11:31:56.486Z,48.88
2022-08-05T11:34:51.336Z,49.06
2022-08-05T11:38:45.769Z,49.24
2022-08-05T11:41:56.430Z,49.54
2022-08-05T11:44:52.791Z,49.97
2022-08-05T11:47:48.581Z,50.21
2022-08-05T11:50:42.960Z,50.56
2022-08-05T11:53:40.742Z,50.46
2022-08-05T11:56:50.058Z,50.78
2022-08-05T11:59:50.345Z,51.34
2022-08-05T12:02:40.874Z,51.33
2022-08-05T12:05:39.677Z,51.74
2022-08-05T12:08:34.257Z,51.79
2022-08-05T12:11:39.756Z,52.06
2022-08-05T12:14:38.931Z,52.48
2022-08-05T12:18:11.091Z,52.75
2022-08-05T12:20:48.796Z,53.13
2022-08-05T12:23:42.884Z,53.18
2022-08-05T12:26:38.801Z,53.41
2022-08-05T12:29:38.615Z,53.55
2022-08-05T12:32:30.025Z,53.56
2022-08-05T12:35:21.668Z,53.84
2022-08-05T12:38:12.903Z,53.87
2022-08-05T12:41:06.160Z,54.19
2022-08-05T12:44:00.272Z,54.38
2022-08-05T12:46:56.391Z,54.58
2022-08-05T12:50:04.070Z,54.72
2022-08-05T12:53:01.100Z,54.82
2022-08-05T12:55:51.241Z,54.73
2022-08-05T12:58:53.055Z,54.62
2022-08-05T13:02:02.755Z,54.94
2022-08-05T13:04:58.870Z,55.07
2022-08-05T13:07:59.200Z,54.73
2022-08-05T13:10:50.878Z,55.32
2022-08-05T13:14:04.539Z,55.32
2022-08-05T13:16:58.785Z,56.02
2022-08-05T13:20:04.545Z,55.80
2022-08-05T13:22:57.495Z,56.24
2022-08-05T13:25:52.172Z,56.03
2022-08-05T13:28:49.303Z,56.45
2022-08-05T13:32:03.979Z,56.59
2022-08-05T13:34:55.324Z,56.52
2022-08-05T13:37:45.694Z,56.37
2022-08-05T13:40:49.868Z,56.39
2022-08-05T13:43:45.475Z,56.53
2022-08-05T13:47:02.532Z,56.63
2022-08-05T13:49:55.673Z,56.87
2022-08-05T13:52:46.080Z,56.66
2022-08-05T13:55:49.308Z,56.52
2022-08-05T13:58:53.332Z,56.64
2022-08-05T14:01:56.261Z,56.79
2022-08-05T14:05:05.813Z,56.82
2022-08-05T14:08:08.734Z,56.78
2022-08-05T14:11:20.420Z,56.52
2022-08-05T14:14:12.805Z,57.11
2022-08-05T14:17:17.749Z,57.41
2022-08-05T14:20:09.498Z,57.65
2022-08-05T14:23:08.283Z,57.31
2022-08-05T14:25:59.746Z,57.26
2022-08-05T14:28:52.559Z,57.36
2022-08-05T14:31:54.433Z,56.91
2022-08-05T14:34:53.057Z,56.53
2022-08-05T14:37:47.309Z,56.39
2022-08-05T14:40:40.150Z,56.02
2022-08-05T14:43:59.160Z,55.76
2022-08-05T14:46:44.487Z,55.55
2022-08-05T14:49:59.432Z,55.66
2022-08-05T14:52:53.040Z,55.64
2022-08-05T14:55:52.109Z,55.86
2022-08-05T14:58:47.747Z,56.26
2022-08-05T15:01:48.055Z,56.65
2022-08-05T15:04:39.325Z,57.20
2022-08-05T15:08:12.299Z,57.48
2022-08-05T15:10:43.486Z,57.67
2022-08-05T15:13:44.916Z,57.92
2022-08-05T15:16:36.302Z,58.12
2022-08-05T15:19:26.801Z,57.92
2022-08-05T15:22:17.586Z,57.69
2022-08-05T15:25:11.543Z,57.87
2022-08-05T15:28:01.898Z,57.70
2022-08-05T15:30:54.768Z,56.79
2022-08-05T15:34:18.933Z,56.38
2022-08-05T15:36:55.321Z,55.61
2022-08-05T15:41:01.807Z,55.86
2022-08-05T15:43:01.548Z,55.47
2022-08-05T15:46:03.148Z,55.11
2022-08-05T15:49:00.618Z,54.42
2022-08-05T15:52:04.324Z,54.26
2022-08-05T15:55:03.687Z,54.06
2022-08-05T15:57:54.199Z,54.11
2022-08-05T16:00:51.028Z,54.16
2022-08-05T16:03:54.785Z,54.06
2022-08-05T16:06:45.544Z,53.87
2022-08-05T16:09:35.214Z,53.70
2022-08-05T16:12:26.904Z,53.72
2022-08-05T16:15:18.360Z,53.72
2022-08-05T16:18:10.646Z,53.62
2022-08-05T16:21:04.556Z,53.60
2022-08-05T16:23:58.057Z,53.69
2022-08-05T16:26:56.887Z,53.75
2022-08-05T16:29:51.099Z,53.75
2022-08-05T16:32:41.848Z,53.74
2022-08-05T16:35:41.957Z,53.85
2022-08-05T16:38:33.121Z,54.09
2022-08-05T16:42:13.901Z,54.12
2022-08-05T16:44:34.977Z,54.22
2022-08-05T16:47:36.372Z,54.31
2022-08-05T16:50:38.971Z,54.32
2022-08-05T16:53:32.109Z,54.50
2022-08-05T16:56:22.646Z,54.48
2022-08-05T16:59:15.643Z,54.52
2022-08-05T17:02:06.740Z,54.27
2022-08-05T17:04:59.603Z,54.27
2022-08-05T17:07:54.593Z,53.88
2022-08-05T17:10:45.073Z,53.67
2022-08-05T17:13:37.049Z,53.06
2022-08-05T17:16:33.649Z,53.05
2022-08-05T17:19:26.132Z,53.13
2022-08-05T17:22:24.986Z,53.25
2022-08-05T17:25:34.058Z,53.26
2022-08-05T17:28:26.462Z,53.13
2022-08-05T17:31:24.122Z,52.90
2022-08-05T17:34:32.551Z,52.71
2022-08-05T17:37:40.824Z,52.74
2022-08-05T17:40:35.438Z,53.00
2022-08-05T17:43:46.681Z,52.89
2022-08-05T17:46:35.287Z,52.80
2022-08-05T17:49:24.957Z,52.83
2022-08-05T17:52:16.434Z,52.78
2022-08-05T17:55:07.989Z,53.04
2022-08-05T17:58:00.450Z,52.99
2022-08-05T18:00:51.145Z,53.16
2022-08-05T18:03:58.950Z,52.98
2022-08-05T18:06:51.442Z,53.07
2022-08-05T18:10:00.466Z,53.18
2022-08-05T18:12:52.492Z,53.33
2022-08-05T18:15:42.094Z,53.47
2022-08-05T18:18:39.695Z,53.72
2022-08-05T18:22:07.366Z,53.67
2022-08-05T18:24:40.551Z,53.78
2022-08-05T18:27:29.989Z,53.98
2022-08-05T18:30:22.283Z,54.03
2022-08-05T18:33:16.613Z,54.09
2022-08-05T18:36:15.456Z,54.25
2022-08-05T18:39:09.823Z,54.34
2022-08-05T18:42:16.172Z,54.50
2022-08-05T18:45:06.736Z,54.70
2022-08-05T18:47:59.673Z,54.70
2022-08-05T18:52:05.714Z,54.87
2022-08-05T18:54:16.942Z,54.79
2022-08-05T18:57:09.255Z,54.87
2022-08-05T19:00:02.415Z,54.81
2022-08-05T19:02:54.627Z,54.84
2022-08-05T19:06:12.629Z,54.81
2022-08-05T19:08:55.306Z,54.87
2022-08-05T19:12:00.924Z,54.93
2022-08-05T19:15:00.968Z,55.00
2022-08-05T19:18:08.345Z,54.60
2022-08-05T19:21:00.758Z,54.61
2022-08-05T19:24:05.456Z,54.37
2022-08-05T19:26:58.494Z,54.45
2022-08-05T19:29:48.222Z,54.48
2022-08-05T19:32:39.513Z,54.28
2022-08-05T19:35:55.954Z,54.38
2022-08-05T19:38:41.453Z,54.54
2022-08-05T19:41:58.124Z,54.40
2022-08-05T19:44:45.297Z,54.04
2022-08-05T19:47:37.953Z,54.05
2022-08-05T19:50:30.238Z,53.97
2022-08-05T19:54:04.549Z,53.81
2022-08-05T19:56:34.736Z,53.77
2022-08-05T20:00:02.164Z,53.55
2022-08-05T20:02:34.829Z,53.73
2022-08-05T20:05:26.549Z,53.59
2022-08-05T20:08:33.679Z,53.76
2022-08-05T20:11:24.670Z,53.58
2022-08-05T20:14:14.442Z,53.51
2022-08-05T20:17:09.997Z,53.46
2022-08-05T20:20:09.519Z,53.40
2022-08-05T20:23:04.120Z,52.99
2022-08-05T20:25:54.817Z,53.23
2022-08-05T20:28:44.461Z,53.08
2022-08-05T20:31:42.077Z,53.05
2022-08-05T20:34:42.402Z,52.88
2022-08-05T20:38:06.207Z,52.70
2022-08-05T20:41:04.665Z,52.62
2022-08-05T20:44:04.211Z,52.48
2022-08-05T20:47:08.932Z,52.05
2022-08-05T20:49:59.947Z,51.75
2022-08-05T20:52:52.532Z,51.44
2022-08-05T20:55:56.430Z,51.31
2022-08-05T20:58:54.112Z,50.81
2022-08-05T21:01:44.932Z,50.56
2022-08-05T21:04:34.938Z,50.44
2022-08-05T21:07:50.501Z,50.29
2022-08-05T21:10:37.899Z,50.18
2022-08-05T21:13:48.318Z,50.16
2022-08-05T21:16:46.322Z,49.75
2022-08-05T21:19:47.502Z,49.62
2022-08-05T21:22:40.732Z,49.63
2022-08-05T21:25:33.736Z,49.57
2022-08-05T21:28:30.838Z,49.30
2022-08-05T21:31:21.393Z,49.24
2022-08-05T21:34:12.183Z,49.19
2022-08-05T21:37:02.907Z,48.99
2022-08-05T21:39:53.278Z,48.95
2022-08-05T21:42:45.762Z,49.00
2022-08-05T21:45:56.191Z,48.90
2022-08-05T21:48:47.922Z,48.52
2022-08-05T21:52:21.927Z,48.32
2022-08-05T21:54:51.269Z,48.09
2022-08-05T21:57:47.632Z,47.98
2022-08-05T22:00:37.864Z,47.87
2022-08-05T22:03:48.789Z,47.87
2022-08-05T22:06:42.449Z,47.90
2022-08-05T22:09:45.898Z,47.82
2022-08-05T22:12:40.325Z,48.25
2022-08-05T22:16:01.660Z,48.19
2022-08-05T22:18:49.228Z,48.26
2022-08-05T22:21:39.771Z,48.42
2022-08-05T22:24:51.879Z,48.58
2022-08-05T22:28:04.873Z,48.49
2022-08-05T22:31:02.345Z,48.47
2022-08-05T22:33:57.519Z,48.68
2022-08-05T22:36:51.557Z,48.65
2022-08-05T22:39:42.336Z,48.70
2022-08-05T22:42:34.230Z,48.84
2022-08-05T22:45:31.533Z,48.92
2022-08-05T22:48:22.943Z,48.93
2022-08-05T22:51:22.676Z,49.11
2022-08-05T22:54:14.010Z,49.04
2022-08-05T22:57:04.339Z,48.99
2022-08-05T22:59:54.519Z,48.79
2022-08-05T23:02:47.006Z,48.64
2022-08-05T23:05:37.094Z,48.77
2022-08-05T23:08:29.915Z,49.42
2022-08-05T23:11:20.179Z,49.59
2022-08-05T23:14:11.017Z,49.92
2022-08-05T23:17:24.270Z,50.06
2022-08-05T23:20:24.414Z,50.39
2022-08-05T23:23:15.039Z,50.68
2022-08-05T23:26:05.746Z,50.75
2022-08-05T23:28:56.042Z,50.78
2022-08-05T23:31:47.088Z,50.74
2022-08-05T23:34:39.457Z,50.70
2022-08-05T23:37:34.165Z,50.67
2022-08-05T23:40:27.165Z,50.71
2022-08-05T23:43:25.635Z,50.55
2022-08-05T23:46:27.279Z,50.47
2022-08-05T23:49:23.902Z,50.20
2022-08-05T23:52:31.643Z,50.08
2022-08-05T23:55:21.721Z,49.69
2022-08-05T23:58:31.305Z,49.45
